NOAA/GLERL Met Station at Michigan City, IN

Previous 5 days (top of hour only)
See slso Previous 3 Hours (2 minute increments)
Jump down to Data
Switch to [English][Metric]
Zoom: Click and drag, Pan: shift-click and drag, Unzoom: double-click, Unzoom All





Zoom: Click and drag, Pan: shift-click and drag, Unzoom: double-click, Unzoom All

Note: Speed = mean wind during 2-minute period at top of hour,
Gust = max wind during 2-minute period at top of hour,
Peak = max wind during entire hour.
• See also 5-day windrose plot

NOAA/GLERL Met Station at Michigan City, IN

Previous 5 days (top of hour only)
See slso Previous 3 Hours (2 minute increments)
Jump up to Graphs
Switch to [English][Metric]
                  Wind  Wind  Wind   Air   Dew   Rel     Sta   PAR
                   Spd   Gst   Dir  Temp    Pt   Hum    Pres uE/m2/
YYYY-MM-DD   CDT   kts   kts   deg     F     F     %   in Hg   sec
2016-09-28 13:00  14.8  16.9    19  57.0  48.2  72.0    0.00     0
2016-09-28 12:00  17.7  20.8    27  56.7  47.8  72.0    0.00     0
2016-09-28 11:00  19.2  21.8    19  57.4  48.8  72.7    0.00     0
2016-09-28 10:00  21.0  23.7     5  57.2  49.5  75.3    0.00     0
2016-09-28 09:00  18.7  21.0    18  56.8  46.4  67.8    0.00     0
2016-09-28 08:00  18.3  21.0     3  56.8  49.4  76.0    0.00     0
2016-09-28 07:00  15.6  18.3     3  55.9  49.1  77.5    0.00     0
2016-09-28 06:00  22.2  24.7   326  55.8  49.5  79.3    0.00     0
2016-09-28 05:00  11.7  12.6    27  55.8  48.3  75.6    0.00     0
2016-09-28 04:00  10.9  12.8    40  55.2  47.9  76.2    0.00     0
2016-09-28 03:00  15.4  17.5    36  54.9  48.4  78.6    0.00     0
2016-09-28 02:00   9.7  10.5    56  55.0  47.2  74.5    0.00     0
2016-09-28 01:00  10.5  11.9    52  55.8  47.5  73.6    0.00     0
2016-09-28 00:00   7.6   8.6    47  56.3  47.2  71.2    0.00     0
2016-09-27 23:00   6.6   8.2    76  58.1  46.5  65.0    0.00     0
2016-09-27 22:00  11.1  11.9    30  63.3  48.7  58.4    0.00     0
2016-09-27 21:00  13.8  16.1   248  66.2  39.3  36.8    0.00     0
2016-09-27 20:00  18.3  20.2   253  66.4  39.2  36.4    0.00     0
2016-09-27 19:00  20.8  22.4   249  66.9  37.9  33.9    0.00     0
2016-09-27 18:00  14.8  16.5   257  66.9  43.7  42.5    0.00     0
2016-09-27 17:00  21.0  22.2   245  67.1  35.3  30.5    0.00     0
2016-09-27 16:00  21.2  22.9   242  66.7  35.3  30.8    0.00     0
2016-09-27 15:00  24.1  26.6   236  66.4  34.7  30.5    0.00     0
2016-09-27 14:00  21.8  23.9   230  65.5  35.6  32.6    0.00     0
2016-09-27 13:00  25.5  27.6   224  64.0  33.9  32.1    0.00     0
2016-09-27 12:00  28.2  32.1   222  63.0  36.2  36.6    0.00     0
2016-09-27 11:00  26.4  29.4   226  61.5  39.8  44.4    0.00     0
2016-09-27 10:00  23.3  25.5   214  60.4  41.4  49.0    0.00     0
2016-09-27 09:00  14.8  15.9   198  57.0  42.7  58.4    0.00     0
2016-09-27 08:00  22.6  25.3   222  59.2  45.8  60.7    0.00     0
2016-09-27 07:00  23.9  28.4   221  59.2  46.6  62.7    0.00     0
2016-09-27 06:00  19.6  25.9   210  57.4  45.5  64.1    0.00     0
2016-09-27 05:00  12.8  14.4   191  54.0  42.4  64.7    0.00     0
2016-09-27 04:00  14.4  16.1   188  54.1  41.1  61.1    0.00     0
2016-09-27 03:00  16.1  18.5   191  55.6  40.5  56.5    0.00     0
2016-09-27 02:00  13.0  15.0   183  57.4  38.9  49.7    0.00     0
2016-09-27 01:00  14.4  15.7   200  60.3  40.5  47.6    0.00     0
2016-09-27 00:00  14.0  15.4   194  59.2  39.6  47.9    0.00     0
2016-09-26 23:00  12.2  13.0   187  59.7  38.2  44.4    0.00     0
2016-09-26 22:00  14.0  15.7   194  63.1  39.2  40.8    0.00     0
2016-09-26 21:00  26.0  28.8   239  66.4  37.5  34.1    0.00     0
2016-09-26 20:00  25.3  27.8   249  66.9  37.9  33.9    0.00     0
2016-09-26 19:00  21.4  25.1   244  67.1  43.2  41.5    0.00     0
2016-09-26 18:00  23.7  26.4   240  67.3  41.5  38.6    0.00     0
2016-09-26 17:00  24.7  27.4   241  67.1  40.0  36.6    0.00     0
2016-09-26 16:00  23.7  25.5   236  66.4  39.1  36.3    0.00     0
2016-09-26 15:00  23.5  26.8   233  65.5  40.7  39.8    0.00     0
2016-09-26 14:00  24.7  28.4   237  64.6  36.5  34.9    0.00     0
2016-09-26 13:00  24.1  25.3   232  64.2  39.9  40.4    0.00     0
2016-09-26 12:00  25.5  28.8   230  63.3  41.5  44.4    0.00     0
2016-09-26 11:00  24.1  26.8   238  62.6  41.4  45.4    0.00     0
2016-09-26 10:00  22.2  24.5   235  61.7  46.1  56.2    0.00     0
2016-09-26 09:00  20.6  23.3   235  61.3  49.0  63.6    0.00     0
2016-09-26 08:00  22.4  26.0   254  61.9  48.0  59.9    0.00     0
2016-09-26 07:00  22.7  26.2   261  62.1  48.4  60.4    0.00     0
2016-09-26 06:00  16.7  20.4   282  62.1  50.7  65.9    0.00     0
2016-09-26 05:00  22.9  25.7   256  61.7  53.3  73.6    0.00     0
2016-09-26 04:00  15.0  16.1   238  61.7  55.5  79.8    0.00     0
2016-09-26 03:00  26.4  28.0   254  63.9  54.0  69.9    0.00     0
2016-09-26 02:00  21.4  23.1   260  66.0  54.3  65.6    0.00     0
2016-09-26 01:00  18.7  19.4   265  67.3  55.6  65.7    0.00     0
2016-09-26 00:00  20.8  22.4   274  68.4  58.1  69.3    0.00     0
2016-09-25 23:00  14.2  14.8   208  72.5  66.2  80.4    0.00     0
2016-09-25 22:00   9.5  12.1   174  71.6  66.8  84.7    0.00     0
2016-09-25 21:00  13.0  15.4   153  74.5  66.7  76.4    0.00     0
2016-09-25 20:00  11.1  13.4   136  74.7  67.1  77.0    0.00     0
2016-09-25 19:00   8.7  10.3   132  75.6  66.4  72.8    0.00     0
2016-09-25 18:00  10.5  12.2   132  76.1  66.2  71.1    0.00     0
2016-09-25 17:00   8.4  10.3   125  82.4  63.7  52.6    0.00     0
2016-09-25 16:00   7.2   8.9   114  82.8  63.6  51.7    0.00     0
2016-09-25 15:00   7.8   9.1   110  82.0  62.8  51.6    0.00     0
2016-09-25 14:00   7.2  10.3   136  80.8  62.1  52.4    0.00     0
2016-09-25 13:00   9.9  11.7   152  78.3  61.1  55.1    0.00     0
2016-09-25 12:00   8.7  10.1   134  75.6  59.7  57.4    0.00     0
2016-09-25 11:00  12.4  14.8   132  71.1  57.1  60.8    0.00     0
2016-09-25 10:00  12.4  14.4   118  66.9  54.1  62.9    0.00     0
2016-09-25 09:00  11.3  13.4   119  63.7  51.3  63.6    0.00     0
2016-09-25 08:00  16.1  18.9   120  63.0  49.3  60.7    0.00     0
2016-09-25 07:00  14.0  18.5   123  61.3  50.7  67.7    0.00     0
2016-09-25 06:00  15.0  20.6   117  61.5  52.1  70.8    0.00     0
2016-09-25 05:00  14.0  16.5   122  62.2  53.6  72.9    0.00     0
2016-09-25 04:00  13.4  17.1   116  63.0  55.6  76.7    0.00     0
2016-09-25 03:00  11.1  13.2   119  64.0  57.3  78.4    0.00     0
2016-09-25 02:00  11.3  13.2   109  65.3  58.0  77.0    0.00     0
2016-09-25 01:00   9.5  11.1   110  66.2  58.5  76.0    0.00     0
2016-09-25 00:00   8.4  10.9   113  66.7  59.6  77.5    0.00     0
2016-09-24 23:00   5.4   6.0    92  67.3  60.4  78.3    0.00     0
2016-09-24 22:00   7.0   7.8    54  66.6  60.5  80.6    0.00     0
2016-09-24 21:00   7.2   8.9    65  68.9  61.3  76.4    0.00     0
2016-09-24 20:00   7.2   7.6    48  69.8  62.0  76.0    0.00     0
2016-09-24 19:00   7.0   7.6    51  71.8  62.2  71.4    0.00     0
2016-09-24 18:00   6.2   7.0    54  72.9  62.3  69.0    0.00     0
2016-09-24 17:00   8.0   8.9    21  68.0  64.7  89.0    0.00     0
2016-09-24 16:00  11.1  11.9    13  68.7  64.3  85.7    0.00     0
2016-09-24 15:00  13.0  13.6    13  68.5  62.8  81.5    0.00     0
2016-09-24 14:00  14.4  15.9    13  68.0  62.1  81.1    0.00     0
2016-09-24 13:00   7.4   8.4    21  68.9  61.1  75.8    0.00     0
2016-09-24 12:00   7.6   8.0    23  67.3  60.0  77.2    0.00     0
2016-09-24 11:00   6.0   7.8    90  67.6  59.9  75.9    0.00     0
2016-09-24 10:00   6.8   9.3    72  65.1  59.4  81.6    0.00     0
2016-09-24 09:00   5.1   6.2    74  63.0  58.8  86.1    0.00     0
2016-09-24 08:00   6.2   7.0    54  61.7  58.4  88.9    0.00     0
2016-09-24 07:00   7.2   7.6    42  61.5  58.6  89.9    0.00     0
2016-09-24 06:00   6.2   7.2    56  61.9  59.3  91.0    0.00     0
2016-09-24 05:00   7.4   7.8    33  62.6  60.3  92.2    0.00     0
2016-09-24 04:00   6.2   7.0    43  63.0  60.7  92.1    0.00     0
2016-09-24 03:00   7.2   7.6    40  63.5  61.7  93.7    0.00     0
2016-09-24 02:00   7.8   8.7    41  64.6  62.9  94.1    0.00     0
2016-09-24 01:00   7.8   8.7    48  65.5  63.4  92.9    0.00     0
2016-09-24 00:00  10.3  11.5    37  66.6  64.0  91.5    0.00     0
2016-09-23 23:00   7.2   7.6    53  67.6  65.5  92.9    0.00     0
2016-09-23 22:00  11.7  13.0    45  68.7  66.4  92.1    0.00     0
2016-09-23 21:00  14.2  15.6    25  69.4  67.3  92.8    0.00     0
2016-09-23 20:00  13.8  14.4    10  70.2  68.9  95.7    0.00     0
2016-09-23 19:00  11.3  12.4     4  70.2  69.1  96.3    0.00     0